sensor_id;sensor_type;location;lat;lon;timestamp;P1;durP1;ratioP1;P2;durP2;ratioP2
59157;SDS011;44940;55.060;73.168;2022-08-25T00:01:06;67.97;;;30.63;;
59157;SDS011;44940;55.060;73.168;2022-08-25T00:03:35;70.50;;;31.77;;
59157;SDS011;44940;55.060;73.168;2022-08-25T00:06:03;72.85;;;30.40;;
59157;SDS011;44940;55.060;73.168;2022-08-25T00:08:30;70.30;;;31.08;;
59157;SDS011;44940;55.060;73.168;2022-08-25T00:11:00;62.65;;;30.08;;
59157;SDS011;44940;55.060;73.168;2022-08-25T00:13:27;77.32;;;29.92;;
59157;SDS011;44940;55.060;73.168;2022-08-25T00:15:56;62.13;;;29.02;;
59157;SDS011;44940;55.060;73.168;2022-08-25T00:18:23;83.72;;;29.80;;
59157;SDS011;44940;55.060;73.168;2022-08-25T00:20:51;69.28;;;29.20;;
59157;SDS011;44940;55.060;73.168;2022-08-25T00:23:18;72.03;;;30.60;;
59157;SDS011;44940;55.060;73.168;2022-08-25T00:25:45;76.28;;;29.08;;
59157;SDS011;44940;55.060;73.168;2022-08-25T00:28:13;58.33;;;28.05;;
59157;SDS011;44940;55.060;73.168;2022-08-25T00:30:42;55.75;;;27.13;;
59157;SDS011;44940;55.060;73.168;2022-08-25T00:33:11;60.47;;;27.00;;
59157;SDS011;44940;55.060;73.168;2022-08-25T00:35:39;50.33;;;25.35;;
59157;SDS011;44940;55.060;73.168;2022-08-25T00:38:07;56.85;;;25.50;;
59157;SDS011;44940;55.060;73.168;2022-08-25T00:40:35;76.38;;;26.95;;
59157;SDS011;44940;55.060;73.168;2022-08-25T00:43:03;61.90;;;26.30;;
59157;SDS011;44940;55.060;73.168;2022-08-25T00:45:31;59.35;;;25.45;;
59157;SDS011;44940;55.060;73.168;2022-08-25T00:47:58;58.25;;;25.67;;
59157;SDS011;44940;55.060;73.168;2022-08-25T00:50:28;63.63;;;25.02;;
59157;SDS011;44940;55.060;73.168;2022-08-25T00:52:58;47.97;;;24.85;;
59157;SDS011;44940;55.060;73.168;2022-08-25T00:55:28;65.90;;;25.08;;
59157;SDS011;44940;55.060;73.168;2022-08-25T00:58:01;51.53;;;23.95;;
59157;SDS011;44940;55.060;73.168;2022-08-25T01:03:01;53.20;;;24.65;;
59157;SDS011;44940;55.060;73.168;2022-08-25T01:05:30;52.13;;;25.08;;
59157;SDS011;44940;55.060;73.168;2022-08-25T01:07:58;57.28;;;24.38;;
59157;SDS011;44940;55.060;73.168;2022-08-25T01:10:31;52.58;;;25.30;;
59157;SDS011;44940;55.060;73.168;2022-08-25T01:13:01;52.13;;;26.50;;
59157;SDS011;44940;55.060;73.168;2022-08-25T01:15:33;59.50;;;28.13;;
59157;SDS011;44940;55.060;73.168;2022-08-25T01:18:00;58.45;;;28.35;;
59157;SDS011;44940;55.060;73.168;2022-08-25T01:20:28;55.60;;;28.38;;
59157;SDS011;44940;55.060;73.168;2022-08-25T01:22:59;61.42;;;28.45;;
59157;SDS011;44940;55.060;73.168;2022-08-25T01:25:32;55.28;;;29.48;;
59157;SDS011;44940;55.060;73.168;2022-08-25T01:28:07;59.47;;;29.05;;
59157;SDS011;44940;55.060;73.168;2022-08-25T01:30:35;47.00;;;27.55;;
59157;SDS011;44940;55.060;73.168;2022-08-25T01:33:03;52.10;;;27.52;;
59157;SDS011;44940;55.060;73.168;2022-08-25T01:35:30;44.63;;;25.23;;
59157;SDS011;44940;55.060;73.168;2022-08-25T01:37:59;50.50;;;23.98;;
59157;SDS011;44940;55.060;73.168;2022-08-25T01:40:27;43.67;;;22.65;;
59157;SDS011;44940;55.060;73.168;2022-08-25T01:42:57;38.55;;;22.95;;
59157;SDS011;44940;55.060;73.168;2022-08-25T01:45:33;38.25;;;23.52;;
59157;SDS011;44940;55.060;73.168;2022-08-25T01:48:01;44.08;;;25.52;;
59157;SDS011;44940;55.060;73.168;2022-08-25T01:50:28;43.85;;;27.45;;
59157;SDS011;44940;55.060;73.168;2022-08-25T01:52:57;52.72;;;29.90;;
59157;SDS011;44940;55.060;73.168;2022-08-25T01:55:29;56.35;;;34.03;;
59157;SDS011;44940;55.060;73.168;2022-08-25T01:58:16;63.85;;;34.03;;
59157;SDS011;44940;55.060;73.168;2022-08-25T02:00:45;50.08;;;26.50;;
59157;SDS011;44940;55.060;73.168;2022-08-25T02:03:13;48.88;;;28.33;;
59157;SDS011;44940;55.060;73.168;2022-08-25T02:05:40;59.72;;;28.17;;
59157;SDS011;44940;55.060;73.168;2022-08-25T02:08:09;42.92;;;23.35;;
59157;SDS011;44940;55.060;73.168;2022-08-25T02:10:37;40.92;;;21.15;;
59157;SDS011;44940;55.060;73.168;2022-08-25T02:13:06;36.53;;;19.40;;
59157;SDS011;44940;55.060;73.168;2022-08-25T02:15:34;37.22;;;18.40;;
59157;SDS011;44940;55.060;73.168;2022-08-25T02:18:05;37.58;;;19.38;;
59157;SDS011;44940;55.060;73.168;2022-08-25T02:20:32;49.17;;;20.23;;
59157;SDS011;44940;55.060;73.168;2022-08-25T02:22:59;43.83;;;19.85;;
59157;SDS011;44940;55.060;73.168;2022-08-25T02:25:28;32.85;;;17.42;;
59157;SDS011;44940;55.060;73.168;2022-08-25T02:27:56;40.17;;;17.63;;
59157;SDS011;44940;55.060;73.168;2022-08-25T02:30:23;35.42;;;17.65;;
59157;SDS011;44940;55.060;73.168;2022-08-25T02:32:51;36.05;;;17.02;;
59157;SDS011;44940;55.060;73.168;2022-08-25T02:35:18;33.20;;;16.15;;
59157;SDS011;44940;55.060;73.168;2022-08-25T02:37:45;35.00;;;16.08;;
59157;SDS011;44940;55.060;73.168;2022-08-25T02:40:12;37.25;;;16.25;;
59157;SDS011;44940;55.060;73.168;2022-08-25T02:42:41;34.97;;;13.80;;
59157;SDS011;44940;55.060;73.168;2022-08-25T02:45:09;27.85;;;13.80;;
59157;SDS011;44940;55.060;73.168;2022-08-25T02:47:37;31.27;;;13.35;;
59157;SDS011;44940;55.060;73.168;2022-08-25T02:50:04;27.27;;;12.82;;
59157;SDS011;44940;55.060;73.168;2022-08-25T02:52:31;33.25;;;13.45;;
59157;SDS011;44940;55.060;73.168;2022-08-25T02:55:00;27.55;;;13.00;;
59157;SDS011;44940;55.060;73.168;2022-08-25T02:57:29;31.58;;;14.10;;
59157;SDS011;44940;55.060;73.168;2022-08-25T02:59:58;33.20;;;14.25;;
59157;SDS011;44940;55.060;73.168;2022-08-25T03:02:25;32.17;;;13.00;;
59157;SDS011;44940;55.060;73.168;2022-08-25T03:04:53;28.52;;;13.45;;
59157;SDS011;44940;55.060;73.168;2022-08-25T03:07:20;24.13;;;12.18;;
59157;SDS011;44940;55.060;73.168;2022-08-25T03:09:47;32.05;;;15.98;;
59157;SDS011;44940;55.060;73.168;2022-08-25T03:12:14;35.17;;;17.80;;
59157;SDS011;44940;55.060;73.168;2022-08-25T03:14:42;29.88;;;13.90;;
59157;SDS011;44940;55.060;73.168;2022-08-25T03:17:10;22.85;;;10.95;;
59157;SDS011;44940;55.060;73.168;2022-08-25T03:19:38;22.02;;;10.32;;
59157;SDS011;44940;55.060;73.168;2022-08-25T03:22:05;26.55;;;9.65;;
59157;SDS011;44940;55.060;73.168;2022-08-25T03:24:32;29.00;;;9.25;;
59157;SDS011;44940;55.060;73.168;2022-08-25T03:26:59;27.00;;;9.73;;
59157;SDS011;44940;55.060;73.168;2022-08-25T03:29:27;23.63;;;9.95;;
59157;SDS011;44940;55.060;73.168;2022-08-25T03:31:56;25.10;;;10.10;;
59157;SDS011;44940;55.060;73.168;2022-08-25T03:34:26;25.67;;;9.48;;
59157;SDS011;44940;55.060;73.168;2022-08-25T03:36:55;23.08;;;8.75;;
59157;SDS011;44940;55.060;73.168;2022-08-25T03:39:24;20.67;;;8.65;;
59157;SDS011;44940;55.060;73.168;2022-08-25T03:41:52;26.10;;;8.90;;
59157;SDS011;44940;55.060;73.168;2022-08-25T03:44:19;20.45;;;9.23;;
59157;SDS011;44940;55.060;73.168;2022-08-25T03:46:47;23.23;;;8.68;;
59157;SDS011;44940;55.060;73.168;2022-08-25T03:49:17;20.85;;;7.97;;
59157;SDS011;44940;55.060;73.168;2022-08-25T03:51:50;23.48;;;7.78;;
59157;SDS011;44940;55.060;73.168;2022-08-25T03:54:19;21.30;;;7.35;;
59157;SDS011;44940;55.060;73.168;2022-08-25T03:56:48;17.20;;;6.95;;
59157;SDS011;44940;55.060;73.168;2022-08-25T03:59:15;20.77;;;7.70;;
59157;SDS011;44940;55.060;73.168;2022-08-25T04:01:43;19.85;;;7.75;;
59157;SDS011;44940;55.060;73.168;2022-08-25T04:04:12;21.17;;;6.78;;
59157;SDS011;44940;55.060;73.168;2022-08-25T04:06:41;14.68;;;6.07;;
59157;SDS011;44940;55.060;73.168;2022-08-25T04:09:11;13.50;;;6.47;;
59157;SDS011;44940;55.060;73.168;2022-08-25T04:11:38;22.30;;;6.53;;
59157;SDS011;44940;55.060;73.168;2022-08-25T04:14:06;16.10;;;5.82;;
59157;SDS011;44940;55.060;73.168;2022-08-25T04:16:33;11.23;;;5.38;;
59157;SDS011;44940;55.060;73.168;2022-08-25T04:19:02;13.60;;;5.45;;
59157;SDS011;44940;55.060;73.168;2022-08-25T04:21:29;18.17;;;5.57;;
59157;SDS011;44940;55.060;73.168;2022-08-25T04:23:57;15.57;;;4.63;;
59157;SDS011;44940;55.060;73.168;2022-08-25T04:26:26;12.30;;;5.15;;
59157;SDS011;44940;55.060;73.168;2022-08-25T04:28:55;16.77;;;5.32;;
59157;SDS011;44940;55.060;73.168;2022-08-25T04:31:24;12.77;;;4.60;;
59157;SDS011;44940;55.060;73.168;2022-08-25T04:33:52;13.73;;;4.32;;
59157;SDS011;44940;55.060;73.168;2022-08-25T04:36:20;17.63;;;4.45;;
59157;SDS011;44940;55.060;73.168;2022-08-25T04:38:47;12.98;;;3.97;;
59157;SDS011;44940;55.060;73.168;2022-08-25T04:41:16;15.98;;;4.07;;
59157;SDS011;44940;55.060;73.168;2022-08-25T04:43:47;13.32;;;4.30;;
59157;SDS011;44940;55.060;73.168;2022-08-25T04:46:15;14.73;;;4.35;;
59157;SDS011;44940;55.060;73.168;2022-08-25T04:48:44;12.77;;;3.63;;
59157;SDS011;44940;55.060;73.168;2022-08-25T04:51:12;12.02;;;3.95;;
59157;SDS011;44940;55.060;73.168;2022-08-25T04:53:40;10.52;;;4.05;;
59157;SDS011;44940;55.060;73.168;2022-08-25T04:56:09;11.90;;;4.03;;
59157;SDS011;44940;55.060;73.168;2022-08-25T04:58:39;15.02;;;3.22;;
59157;SDS011;44940;55.060;73.168;2022-08-25T05:01:08;11.75;;;3.65;;
59157;SDS011;44940;55.060;73.168;2022-08-25T05:03:37;16.25;;;3.83;;
59157;SDS011;44940;55.060;73.168;2022-08-25T05:06:04;15.77;;;3.15;;
59157;SDS011;44940;55.060;73.168;2022-08-25T05:08:32;11.80;;;2.97;;
59157;SDS011;44940;55.060;73.168;2022-08-25T05:11:03;15.93;;;2.97;;
59157;SDS011;44940;55.060;73.168;2022-08-25T05:13:31;6.53;;;2.43;;
59157;SDS011;44940;55.060;73.168;2022-08-25T05:15:58;8.75;;;2.72;;
59157;SDS011;44940;55.060;73.168;2022-08-25T05:18:28;11.93;;;2.53;;
59157;SDS011;44940;55.060;73.168;2022-08-25T05:21:00;4.03;;;1.90;;
59157;SDS011;44940;55.060;73.168;2022-08-25T05:23:28;8.20;;;2.38;;
59157;SDS011;44940;55.060;73.168;2022-08-25T05:25:56;6.10;;;2.30;;
59157;SDS011;44940;55.060;73.168;2022-08-25T05:28:28;10.68;;;2.42;;
59157;SDS011;44940;55.060;73.168;2022-08-25T05:30:57;11.73;;;2.40;;
59157;SDS011;44940;55.060;73.168;2022-08-25T05:33:25;11.27;;;1.83;;
59157;SDS011;44940;55.060;73.168;2022-08-25T05:35:54;10.65;;;2.30;;
59157;SDS011;44940;55.060;73.168;2022-08-25T05:38:21;7.10;;;2.28;;
59157;SDS011;44940;55.060;73.168;2022-08-25T05:40:50;14.95;;;2.40;;
59157;SDS011;44940;55.060;73.168;2022-08-25T05:43:19;13.57;;;2.75;;
59157;SDS011;44940;55.060;73.168;2022-08-25T05:45:46;7.65;;;2.20;;
59157;SDS011;44940;55.060;73.168;2022-08-25T05:48:13;10.82;;;2.15;;
59157;SDS011;44940;55.060;73.168;2022-08-25T05:50:41;6.43;;;1.75;;
59157;SDS011;44940;55.060;73.168;2022-08-25T05:53:17;9.07;;;2.20;;
59157;SDS011;44940;55.060;73.168;2022-08-25T05:55:44;8.48;;;2.30;;
59157;SDS011;44940;55.060;73.168;2022-08-25T05:58:12;9.88;;;2.72;;
59157;SDS011;44940;55.060;73.168;2022-08-25T06:00:39;6.70;;;2.65;;
59157;SDS011;44940;55.060;73.168;2022-08-25T06:03:07;11.75;;;2.53;;
59157;SDS011;44940;55.060;73.168;2022-08-25T06:05:34;4.85;;;2.13;;
59157;SDS011;44940;55.060;73.168;2022-08-25T06:08:01;3.05;;;1.83;;
59157;SDS011;44940;55.060;73.168;2022-08-25T06:10:31;5.63;;;2.30;;
59157;SDS011;44940;55.060;73.168;2022-08-25T06:12:58;8.95;;;1.98;;
59157;SDS011;44940;55.060;73.168;2022-08-25T06:15:26;5.35;;;1.92;;
59157;SDS011;44940;55.060;73.168;2022-08-25T06:17:54;7.63;;;2.33;;
59157;SDS011;44940;55.060;73.168;2022-08-25T06:20:24;7.57;;;2.40;;
59157;SDS011;44940;55.060;73.168;2022-08-25T06:22:52;3.60;;;2.10;;
59157;SDS011;44940;55.060;73.168;2022-08-25T06:25:20;7.97;;;2.22;;
59157;SDS011;44940;55.060;73.168;2022-08-25T06:27:50;8.80;;;2.70;;
59157;SDS011;44940;55.060;73.168;2022-08-25T06:30:19;6.47;;;2.30;;
59157;SDS011;44940;55.060;73.168;2022-08-25T06:32:48;10.20;;;2.15;;
59157;SDS011;44940;55.060;73.168;2022-08-25T06:35:16;5.05;;;2.10;;
59157;SDS011;44940;55.060;73.168;2022-08-25T06:37:45;6.07;;;2.75;;
59157;SDS011;44940;55.060;73.168;2022-08-25T06:40:12;9.70;;;2.53;;
59157;SDS011;44940;55.060;73.168;2022-08-25T06:42:41;14.93;;;2.60;;
59157;SDS011;44940;55.060;73.168;2022-08-25T06:45:10;5.93;;;2.53;;
59157;SDS011;44940;55.060;73.168;2022-08-25T06:47:37;4.70;;;2.13;;
59157;SDS011;44940;55.060;73.168;2022-08-25T06:50:04;8.02;;;3.00;;
59157;SDS011;44940;55.060;73.168;2022-08-25T06:52:32;7.88;;;2.60;;
59157;SDS011;44940;55.060;73.168;2022-08-25T06:55:00;5.45;;;2.55;;
59157;SDS011;44940;55.060;73.168;2022-08-25T06:57:29;10.05;;;3.33;;
59157;SDS011;44940;55.060;73.168;2022-08-25T06:59:59;4.85;;;2.85;;
59157;SDS011;44940;55.060;73.168;2022-08-25T07:02:28;5.65;;;3.00;;
59157;SDS011;44940;55.060;73.168;2022-08-25T07:04:55;5.22;;;2.42;;
59157;SDS011;44940;55.060;73.168;2022-08-25T07:07:22;6.95;;;2.60;;
59157;SDS011;44940;55.060;73.168;2022-08-25T07:09:49;5.55;;;2.70;;
59157;SDS011;44940;55.060;73.168;2022-08-25T07:12:16;6.07;;;3.10;;
59157;SDS011;44940;55.060;73.168;2022-08-25T07:14:43;6.13;;;2.63;;
59157;SDS011;44940;55.060;73.168;2022-08-25T07:17:10;8.57;;;3.13;;
59157;SDS011;44940;55.060;73.168;2022-08-25T07:19:39;7.75;;;3.10;;
59157;SDS011;44940;55.060;73.168;2022-08-25T07:22:07;5.15;;;2.70;;
59157;SDS011;44940;55.060;73.168;2022-08-25T07:24:34;9.13;;;3.15;;
59157;SDS011;44940;55.060;73.168;2022-08-25T07:27:01;7.03;;;3.40;;
59157;SDS011;44940;55.060;73.168;2022-08-25T07:29:29;6.50;;;3.10;;
59157;SDS011;44940;55.060;73.168;2022-08-25T07:31:58;7.53;;;3.30;;
59157;SDS011;44940;55.060;73.168;2022-08-25T07:34:25;6.78;;;3.50;;
59157;SDS011;44940;55.060;73.168;2022-08-25T07:37:12;7.68;;;3.03;;
59157;SDS011;44940;55.060;73.168;2022-08-25T07:39:39;5.70;;;2.97;;
59157;SDS011;44940;55.060;73.168;2022-08-25T07:42:06;9.77;;;3.40;;
59157;SDS011;44940;55.060;73.168;2022-08-25T07:44:34;8.85;;;3.00;;
59157;SDS011;44940;55.060;73.168;2022-08-25T07:47:01;7.32;;;3.08;;
59157;SDS011;44940;55.060;73.168;2022-08-25T07:49:30;10.27;;;3.38;;
59157;SDS011;44940;55.060;73.168;2022-08-25T07:51:57;7.10;;;2.92;;
59157;SDS011;44940;55.060;73.168;2022-08-25T07:54:25;14.77;;;3.58;;
59157;SDS011;44940;55.060;73.168;2022-08-25T07:56:53;4.40;;;3.15;;
59157;SDS011;44940;55.060;73.168;2022-08-25T07:59:20;5.20;;;3.25;;
59157;SDS011;44940;55.060;73.168;2022-08-25T08:01:47;9.07;;;3.45;;
59157;SDS011;44940;55.060;73.168;2022-08-25T08:04:14;6.43;;;3.30;;
59157;SDS011;44940;55.060;73.168;2022-08-25T08:06:41;6.50;;;3.60;;
59157;SDS011;44940;55.060;73.168;2022-08-25T08:09:09;9.48;;;4.45;;
59157;SDS011;44940;55.060;73.168;2022-08-25T08:11:39;6.90;;;4.15;;
59157;SDS011;44940;55.060;73.168;2022-08-25T08:14:10;11.70;;;4.18;;
59157;SDS011;44940;55.060;73.168;2022-08-25T08:16:38;7.88;;;4.30;;
59157;SDS011;44940;55.060;73.168;2022-08-25T08:19:05;9.15;;;4.28;;
59157;SDS011;44940;55.060;73.168;2022-08-25T08:21:34;5.57;;;3.42;;
59157;SDS011;44940;55.060;73.168;2022-08-25T08:24:02;4.85;;;3.53;;
59157;SDS011;44940;55.060;73.168;2022-08-25T08:26:30;7.68;;;3.58;;
59157;SDS011;44940;55.060;73.168;2022-08-25T08:28:59;12.60;;;4.03;;
59157;SDS011;44940;55.060;73.168;2022-08-25T08:31:29;7.50;;;4.03;;
59157;SDS011;44940;55.060;73.168;2022-08-25T08:33:56;6.47;;;3.97;;
59157;SDS011;44940;55.060;73.168;2022-08-25T08:36:23;5.10;;;3.60;;
59157;SDS011;44940;55.060;73.168;2022-08-25T08:38:51;5.45;;;3.80;;
59157;SDS011;44940;55.060;73.168;2022-08-25T08:41:28;10.25;;;4.10;;
59157;SDS011;44940;55.060;73.168;2022-08-25T08:44:29;7.82;;;4.13;;
59157;SDS011;44940;55.060;73.168;2022-08-25T08:47:07;10.43;;;3.67;;
59157;SDS011;44940;55.060;73.168;2022-08-25T08:49:40;8.20;;;4.18;;
59157;SDS011;44940;55.060;73.168;2022-08-25T08:52:18;5.57;;;3.88;;
59157;SDS011;44940;55.060;73.168;2022-08-25T08:55:04;5.82;;;3.88;;
59157;SDS011;44940;55.060;73.168;2022-08-25T08:57:40;6.75;;;3.47;;
59157;SDS011;44940;55.060;73.168;2022-08-25T09:00:13;7.30;;;3.65;;
59157;SDS011;44940;55.060;73.168;2022-08-25T09:02:42;6.82;;;4.22;;
59157;SDS011;44940;55.060;73.168;2022-08-25T09:05:15;9.23;;;5.57;;
59157;SDS011;44940;55.060;73.168;2022-08-25T09:07:45;21.58;;;8.50;;
59157;SDS011;44940;55.060;73.168;2022-08-25T09:10:15;10.85;;;4.80;;
59157;SDS011;44940;55.060;73.168;2022-08-25T09:12:45;7.32;;;4.35;;
59157;SDS011;44940;55.060;73.168;2022-08-25T09:15:27;10.80;;;4.28;;
59157;SDS011;44940;55.060;73.168;2022-08-25T09:18:23;15.65;;;4.88;;
59157;SDS011;44940;55.060;73.168;2022-08-25T09:20:59;10.02;;;5.30;;
59157;SDS011;44940;55.060;73.168;2022-08-25T09:23:37;11.93;;;5.00;;
59157;SDS011;44940;55.060;73.168;2022-08-25T09:26:17;13.65;;;4.68;;
59157;SDS011;44940;55.060;73.168;2022-08-25T09:28:58;12.95;;;4.60;;
59157;SDS011;44940;55.060;73.168;2022-08-25T09:31:31;12.15;;;4.85;;
59157;SDS011;44940;55.060;73.168;2022-08-25T09:34:02;9.77;;;4.18;;
59157;SDS011;44940;55.060;73.168;2022-08-25T09:36:31;11.20;;;5.57;;
59157;SDS011;44940;55.060;73.168;2022-08-25T09:38:59;15.68;;;8.02;;
59157;SDS011;44940;55.060;73.168;2022-08-25T09:41:43;10.63;;;5.78;;
59157;SDS011;44940;55.060;73.168;2022-08-25T09:44:15;6.82;;;4.40;;
59157;SDS011;44940;55.060;73.168;2022-08-25T09:47:03;8.73;;;4.35;;
59157;SDS011;44940;55.060;73.168;2022-08-25T09:49:34;8.52;;;4.35;;
59157;SDS011;44940;55.060;73.168;2022-08-25T09:52:25;8.60;;;3.67;;
59157;SDS011;44940;55.060;73.168;2022-08-25T09:54:58;5.00;;;3.92;;
59157;SDS011;44940;55.060;73.168;2022-08-25T09:57:29;14.13;;;4.78;;
59157;SDS011;44940;55.060;73.168;2022-08-25T10:00:08;6.53;;;4.00;;
59157;SDS011;44940;55.060;73.168;2022-08-25T10:02:39;16.25;;;5.30;;
59157;SDS011;44940;55.060;73.168;2022-08-25T10:07:53;6.85;;;4.40;;
59157;SDS011;44940;55.060;73.168;2022-08-25T10:10:26;28.60;;;8.05;;
59157;SDS011;44940;55.060;73.168;2022-08-25T10:12:55;11.82;;;5.00;;
59157;SDS011;44940;55.060;73.168;2022-08-25T10:15:27;11.95;;;4.97;;
59157;SDS011;44940;55.060;73.168;2022-08-25T10:18:20;10.55;;;4.85;;
59157;SDS011;44940;55.060;73.168;2022-08-25T10:21:03;20.88;;;5.47;;
59157;SDS011;44940;55.060;73.168;2022-08-25T10:23:36;14.80;;;5.93;;
59157;SDS011;44940;55.060;73.168;2022-08-25T10:26:12;12.63;;;4.95;;
59157;SDS011;44940;55.060;73.168;2022-08-25T10:28:52;7.38;;;4.32;;
59157;SDS011;44940;55.060;73.168;2022-08-25T10:31:30;8.52;;;4.95;;
59157;SDS011;44940;55.060;73.168;2022-08-25T10:34:10;9.10;;;5.30;;
59157;SDS011;44940;55.060;73.168;2022-08-25T10:36:48;21.45;;;6.80;;
59157;SDS011;44940;55.060;73.168;2022-08-25T10:39:26;10.90;;;5.43;;
59157;SDS011;44940;55.060;73.168;2022-08-25T10:42:06;9.02;;;4.90;;
59157;SDS011;44940;55.060;73.168;2022-08-25T10:44:48;8.90;;;5.22;;
59157;SDS011;44940;55.060;73.168;2022-08-25T10:47:51;16.52;;;4.80;;
59157;SDS011;44940;55.060;73.168;2022-08-25T10:50:33;12.50;;;4.40;;
59157;SDS011;44940;55.060;73.168;2022-08-25T10:53:10;9.68;;;4.88;;
59157;SDS011;44940;55.060;73.168;2022-08-25T10:55:44;19.77;;;7.35;;
59157;SDS011;44940;55.060;73.168;2022-08-25T10:58:23;21.02;;;8.52;;
59157;SDS011;44940;55.060;73.168;2022-08-25T11:00:58;11.30;;;5.88;;
59157;SDS011;44940;55.060;73.168;2022-08-25T11:03:39;15.23;;;7.95;;
59157;SDS011;44940;55.060;73.168;2022-08-25T11:06:15;14.15;;;5.47;;
59157;SDS011;44940;55.060;73.168;2022-08-25T11:08:46;6.47;;;4.75;;
59157;SDS011;44940;55.060;73.168;2022-08-25T11:11:19;8.68;;;5.60;;
59157;SDS011;44940;55.060;73.168;2022-08-25T11:13:52;12.35;;;5.32;;
59157;SDS011;44940;55.060;73.168;2022-08-25T11:16:25;8.27;;;5.78;;
59157;SDS011;44940;55.060;73.168;2022-08-25T11:19:01;10.82;;;5.32;;
59157;SDS011;44940;55.060;73.168;2022-08-25T11:21:38;10.07;;;5.35;;
59157;SDS011;44940;55.060;73.168;2022-08-25T11:24:18;10.38;;;5.40;;
59157;SDS011;44940;55.060;73.168;2022-08-25T11:26:57;9.05;;;5.13;;
59157;SDS011;44940;55.060;73.168;2022-08-25T11:29:27;23.65;;;7.53;;
59157;SDS011;44940;55.060;73.168;2022-08-25T11:31:58;11.18;;;5.80;;
59157;SDS011;44940;55.060;73.168;2022-08-25T11:34:27;12.02;;;5.82;;
59157;SDS011;44940;55.060;73.168;2022-08-25T11:37:00;12.55;;;5.72;;
59157;SDS011;44940;55.060;73.168;2022-08-25T11:39:36;11.32;;;6.00;;
59157;SDS011;44940;55.060;73.168;2022-08-25T11:42:18;13.15;;;5.57;;
59157;SDS011;44940;55.060;73.168;2022-08-25T11:45:03;7.88;;;5.38;;
59157;SDS011;44940;55.060;73.168;2022-08-25T11:47:44;7.03;;;4.85;;
59157;SDS011;44940;55.060;73.168;2022-08-25T11:50:26;12.13;;;6.03;;
59157;SDS011;44940;55.060;73.168;2022-08-25T11:53:00;14.27;;;5.78;;
59157;SDS011;44940;55.060;73.168;2022-08-25T11:55:45;9.48;;;5.25;;
59157;SDS011;44940;55.060;73.168;2022-08-25T12:01:11;9.38;;;5.60;;
59157;SDS011;44940;55.060;73.168;2022-08-25T12:04:30;9.73;;;5.90;;
59157;SDS011;44940;55.060;73.168;2022-08-25T12:07:15;9.00;;;6.20;;
59157;SDS011;44940;55.060;73.168;2022-08-25T12:15:55;13.88;;;7.00;;
59157;SDS011;44940;55.060;73.168;2022-08-25T12:18:39;10.98;;;6.32;;
59157;SDS011;44940;55.060;73.168;2022-08-25T12:21:09;11.70;;;7.40;;
59157;SDS011;44940;55.060;73.168;2022-08-25T12:23:40;26.75;;;9.70;;
59157;SDS011;44940;55.060;73.168;2022-08-25T12:26:12;14.68;;;8.65;;
59157;SDS011;44940;55.060;73.168;2022-08-25T12:28:50;12.52;;;7.75;;
59157;SDS011;44940;55.060;73.168;2022-08-25T12:31:41;25.20;;;8.05;;
59157;SDS011;44940;55.060;73.168;2022-08-25T12:34:35;19.92;;;8.20;;
59157;SDS011;44940;55.060;73.168;2022-08-25T12:37:14;12.63;;;6.50;;
59157;SDS011;44940;55.060;73.168;2022-08-25T12:39:44;13.70;;;8.32;;
59157;SDS011;44940;55.060;73.168;2022-08-25T12:42:28;17.98;;;7.40;;
59157;SDS011;44940;55.060;73.168;2022-08-25T12:45:09;12.70;;;7.88;;
59157;SDS011;44940;55.060;73.168;2022-08-25T12:47:42;33.67;;;20.58;;
59157;SDS011;44940;55.060;73.168;2022-08-25T12:50:29;18.98;;;9.35;;
59157;SDS011;44940;55.060;73.168;2022-08-25T12:53:09;17.08;;;10.77;;
59157;SDS011;44940;55.060;73.168;2022-08-25T12:55:38;19.23;;;11.55;;
59157;SDS011;44940;55.060;73.168;2022-08-25T12:58:12;37.55;;;11.05;;
59157;SDS011;44940;55.060;73.168;2022-08-25T13:00:47;23.45;;;9.10;;
59157;SDS011;44940;55.060;73.168;2022-08-25T13:03:31;27.38;;;10.43;;
59157;SDS011;44940;55.060;73.168;2022-08-25T13:06:25;26.30;;;12.13;;
59157;SDS011;44940;55.060;73.168;2022-08-25T13:12:20;26.58;;;9.45;;
59157;SDS011;44940;55.060;73.168;2022-08-25T13:14:54;27.40;;;9.07;;
59157;SDS011;44940;55.060;73.168;2022-08-25T13:17:26;26.25;;;10.10;;
59157;SDS011;44940;55.060;73.168;2022-08-25T13:20:11;25.17;;;10.15;;
59157;SDS011;44940;55.060;73.168;2022-08-25T13:22:45;25.25;;;9.82;;
59157;SDS011;44940;55.060;73.168;2022-08-25T13:25:14;28.02;;;10.93;;
59157;SDS011;44940;55.060;73.168;2022-08-25T13:27:46;28.40;;;11.43;;
59157;SDS011;44940;55.060;73.168;2022-08-25T13:30:26;30.95;;;12.52;;
59157;SDS011;44940;55.060;73.168;2022-08-25T13:32:55;36.72;;;13.23;;
59157;SDS011;44940;55.060;73.168;2022-08-25T13:35:23;46.58;;;13.25;;
59157;SDS011;44940;55.060;73.168;2022-08-25T13:37:52;42.58;;;14.30;;
59157;SDS011;44940;55.060;73.168;2022-08-25T13:40:23;57.45;;;13.98;;
59157;SDS011;44940;55.060;73.168;2022-08-25T13:42:52;50.55;;;13.60;;
59157;SDS011;44940;55.060;73.168;2022-08-25T13:45:25;57.80;;;14.25;;
59157;SDS011;44940;55.060;73.168;2022-08-25T13:47:54;61.72;;;15.45;;
59157;SDS011;44940;55.060;73.168;2022-08-25T13:50:28;64.60;;;15.45;;
59157;SDS011;44940;55.060;73.168;2022-08-25T13:52:58;66.82;;;16.40;;
59157;SDS011;44940;55.060;73.168;2022-08-25T13:55:30;57.30;;;15.10;;
59157;SDS011;44940;55.060;73.168;2022-08-25T14:00:31;69.03;;;27.63;;
59157;SDS011;44940;55.060;73.168;2022-08-25T14:03:04;49.55;;;23.25;;
59157;SDS011;44940;55.060;73.168;2022-08-25T14:05:32;46.83;;;26.50;;
59157;SDS011;44940;55.060;73.168;2022-08-25T14:08:03;47.20;;;23.05;;
59157;SDS011;44940;55.060;73.168;2022-08-25T14:10:34;40.75;;;16.15;;
59157;SDS011;44940;55.060;73.168;2022-08-25T14:13:11;45.00;;;15.85;;
59157;SDS011;44940;55.060;73.168;2022-08-25T14:15:43;29.38;;;15.13;;
59157;SDS011;44940;55.060;73.168;2022-08-25T14:18:12;36.17;;;15.88;;
59157;SDS011;44940;55.060;73.168;2022-08-25T14:20:45;33.85;;;15.18;;
59157;SDS011;44940;55.060;73.168;2022-08-25T14:23:16;41.85;;;14.38;;
59157;SDS011;44940;55.060;73.168;2022-08-25T14:25:47;32.38;;;14.23;;
59157;SDS011;44940;55.060;73.168;2022-08-25T14:28:16;33.70;;;15.20;;
59157;SDS011;44940;55.060;73.168;2022-08-25T14:30:47;41.20;;;16.40;;
59157;SDS011;44940;55.060;73.168;2022-08-25T14:33:16;34.10;;;15.52;;
59157;SDS011;44940;55.060;73.168;2022-08-25T14:35:45;42.63;;;18.27;;
59157;SDS011;44940;55.060;73.168;2022-08-25T14:38:14;49.72;;;19.63;;
59157;SDS011;44940;55.060;73.168;2022-08-25T14:40:43;44.85;;;19.02;;
59157;SDS011;44940;55.060;73.168;2022-08-25T14:43:10;40.17;;;19.40;;
59157;SDS011;44940;55.060;73.168;2022-08-25T14:45:40;51.33;;;22.65;;
59157;SDS011;44940;55.060;73.168;2022-08-25T14:48:11;48.38;;;21.25;;
59157;SDS011;44940;55.060;73.168;2022-08-25T14:50:43;45.83;;;20.85;;
59157;SDS011;44940;55.060;73.168;2022-08-25T14:53:11;44.05;;;20.30;;
59157;SDS011;44940;55.060;73.168;2022-08-25T14:55:38;39.33;;;19.63;;
59157;SDS011;44940;55.060;73.168;2022-08-25T14:58:06;34.35;;;19.20;;
59157;SDS011;44940;55.060;73.168;2022-08-25T15:00:33;36.80;;;21.08;;
59157;SDS011;44940;55.060;73.168;2022-08-25T15:03:02;41.72;;;21.48;;
59157;SDS011;44940;55.060;73.168;2022-08-25T15:05:31;52.03;;;22.10;;